Time;durP1;ratioP1;P1;durP2;ratioP2;P2;SDS_P1;SDS_P2;PMS_P1;PMS_P2;Temp;Humidity;BMP_temperature;BMP_pressure;BME280_temperature;BME280_humidity;BME280_pressure;Samples;Min_cycle;Max_cycle;Signal;HPM_P1;HPM_P2
2022/10/21 00:00:49;;;;;;;;;33.00;30.00;;;;;8.41;54.58;99358.75;6021427;28;96297;-69
2022/10/21 00:03:52;;;;;;;;;37.75;32.75;;;;;8.39;54.78;99360.81;6021594;29;96395;-69
2022/10/21 00:06:57;;;;;;;;;30.25;28.50;;;;;8.37;54.72;99356.63;6021429;28;96426;-69
2022/10/21 00:10:00;;;;;;;;;35.50;31.50;;;;;8.34;54.87;99354.34;6035652;28;96340;-69
2022/10/21 00:13:04;;;;;;;;;36.50;32.00;;;;;8.34;54.95;99360.56;6022538;28;96507;-69
2022/10/21 00:16:10;;;;;;;;;35.00;31.25;;;;;8.36;54.55;99361.19;6027475;28;97467;-69
2022/10/21 00:19:13;;;;;;;;;36.60;31.60;;;;;8.39;55.01;99362.66;6020934;28;97474;-69
2022/10/21 00:22:18;;;;;;;;;36.80;31.40;;;;;8.37;54.17;99354.78;6021485;29;96299;-70
2022/10/21 00:25:21;;;;;;;;;38.60;33.00;;;;;8.31;54.58;99358.25;6021445;28;96596;-70
2022/10/21 00:28:25;;;;;;;;;41.00;34.50;;;;;8.26;54.75;99349.91;6023376;28;96889;-69
2022/10/21 00:31:29;;;;;;;;;37.50;32.00;;;;;8.22;54.46;99336.06;6019544;29;98411;-69
2022/10/21 00:34:32;;;;;;;;;35.40;31.20;;;;;8.27;54.57;99335.47;6020489;29;96968;-69
2022/10/21 00:37:37;;;;;;;;;40.40;33.00;;;;;8.25;54.59;99314.19;6021127;28;96481;-69
2022/10/21 00:40:41;;;;;;;;;34.60;31.60;;;;;8.26;54.52;99315.81;6021593;28;96567;-66
2022/10/21 00:43:56;;;;;;;;;39.40;32.00;;;;;8.15;54.76;99292.22;6029039;28;96445;-69
2022/10/21 00:47:04;;;;;;;;;36.60;32.00;;;;;8.13;54.95;99299.63;6020798;29;96858;-69
2022/10/21 00:50:21;;;;;;;;;36.00;30.00;;;;;8.25;54.92;99295.38;6020230;29;96586;-69
2022/10/21 00:53:27;;;;;;;;;37.80;32.00;;;;;8.30;55.01;99291.31;6021209;28;96804;-70
2022/10/21 00:56:33;;;;;;;;;35.80;30.00;;;;;8.28;54.91;99269.97;6020647;29;96757;-69
2022/10/21 00:59:40;;;;;;;;;35.60;31.00;;;;;8.27;54.75;99271.84;6020838;29;96937;-69
2022/10/21 01:02:44;;;;;;;;;34.00;31.00;;;;;8.01;55.15;99244.00;6019480;29;96702;-69
2022/10/21 01:05:48;;;;;;;;;35.00;32.00;;;;;8.11;55.24;99277.50;6019881;29;96925;-69
2022/10/21 01:08:59;;;;;;;;;38.60;33.00;;;;;8.14;55.20;99287.03;6020888;28;96880;-69
2022/10/21 01:12:07;;;;;;;;;36.25;32.75;;;;;8.07;55.06;99280.78;6019675;28;96324;-69
2022/10/21 01:15:18;;;;;;;;;36.00;32.00;;;;;8.01;55.03;99274.38;6020418;28;97491;-69
2022/10/21 01:18:30;;;;;;;;;38.80;32.00;;;;;7.89;55.35;99253.59;6020042;28;96331;-69
2022/10/21 01:21:41;;;;;;;;;38.00;33.00;;;;;7.97;55.46;99256.97;6011787;29;96786;-69
2022/10/21 01:25:02;;;;;;;;;39.80;33.40;;;;;7.91;55.44;99244.34;6020381;29;96554;-68
2022/10/21 01:28:17;;;;;;;;;35.25;31.75;;;;;7.91;55.91;99259.63;6018355;29;98589;-69
2022/10/21 01:31:30;;;;;;;;;36.25;30.75;;;;;7.92;55.93;99261.25;6019015;28;97874;-69
2022/10/21 01:34:41;;;;;;;;;36.80;33.00;;;;;7.89;55.92;99275.06;6016932;28;97672;-69
2022/10/21 01:37:51;;;;;;;;;35.00;30.00;;;;;7.90;56.07;99263.31;6021167;28;96544;-67
2022/10/21 01:41:01;;;;;;;;;34.00;31.60;;;;;7.77;56.06;99250.63;6005645;28;96478;-67
2022/10/21 01:44:14;;;;;;;;;36.75;31.50;;;;;7.88;56.13;99276.94;6016621;28;97141;-68
2022/10/21 01:47:22;;;;;;;;;32.40;30.00;;;;;7.87;56.47;99269.88;6020843;28;96730;-69
2022/10/21 01:50:27;;;;;;;;;39.60;32.60;;;;;7.91;56.08;99279.25;6030344;28;97238;-67
2022/10/21 01:53:36;;;;;;;;;38.00;32.00;;;;;7.92;55.87;99272.00;6016072;28;96983;-69
2022/10/21 01:56:43;;;;;;;;;35.00;30.60;;;;;7.98;55.67;99268.53;6023429;28;97267;-69
2022/10/21 01:59:47;;;;;;;;;39.60;33.00;;;;;7.93;55.56;99262.91;6026530;28;96769;-68
2022/10/21 02:02:52;;;;;;;;;35.00;32.00;;;;;7.88;55.59;99268.88;6030990;28;96204;-69
2022/10/21 02:05:56;;;;;;;;;41.00;33.00;;;;;7.84;55.25;99263.06;6025057;28;96946;-67
2022/10/21 02:08:59;;;;;;;;;38.20;31.80;;;;;7.85;55.29;99261.22;6027617;28;96474;-65
2022/10/21 02:12:05;;;;;;;;;37.60;33.00;;;;;7.70;55.37;99249.75;6026661;28;96263;-69
2022/10/21 02:15:12;;;;;;;;;38.40;33.00;;;;;7.75;55.12;99261.56;6022832;28;96601;-69
2022/10/21 02:18:23;;;;;;;;;34.00;31.00;;;;;7.81;55.08;99260.78;6021000;28;97970;-69
2022/10/21 02:21:31;;;;;;;;;37.00;33.00;;;;;7.78;54.87;99265.69;6033356;28;96239;-69
2022/10/21 02:24:42;;;;;;;;;36.60;32.60;;;;;7.77;54.96;99264.88;6020607;28;96227;-69
2022/10/21 02:27:47;;;;;;;;;38.00;33.00;;;;;7.75;54.72;99266.94;6014832;28;96660;-68
2022/10/21 02:31:06;;;;;;;;;38.60;32.40;;;;;7.76;54.67;99263.22;6005479;28;98524;-68
2022/10/21 02:34:20;;;;;;;;;35.67;31.00;;;;;7.73;54.57;99246.66;6017669;29;96707;-68
2022/10/21 02:37:32;;;;;;;;;35.50;30.75;;;;;7.72;55.06;99245.03;6027744;28;96814;-69
2022/10/21 02:40:40;;;;;;;;;36.50;31.00;;;;;7.55;55.05;99233.72;6030216;28;96971;-69
2022/10/21 02:43:48;;;;;;;;;35.50;30.00;;;;;7.63;55.27;99249.69;6023292;28;96301;-70
2022/10/21 02:46:52;;;;;;;;;36.00;30.00;;;;;7.61;55.19;99242.88;6020608;28;97579;-69
2022/10/21 02:49:57;;;;;;;;;34.80;31.40;;;;;7.61;55.74;99241.00;6022812;29;96924;-69
2022/10/21 02:53:01;;;;;;;;;35.00;32.00;;;;;7.57;55.46;99230.88;6036754;28;96709;-69
2022/10/21 02:56:04;;;;;;;;;31.00;29.00;;;;;7.56;55.51;99218.47;6023620;28;96868;-69
2022/10/21 02:59:08;;;;;;;;;35.33;33.00;;;;;7.59;55.38;99210.84;6021810;28;96859;-68
2022/10/21 03:02:12;;;;;;;;;38.75;33.00;;;;;7.64;55.54;99216.47;6021372;28;96319;-69
2022/10/21 03:05:17;;;;;;;;;33.00;30.75;;;;;7.62;55.35;99223.91;6022744;28;96591;-69
2022/10/21 03:08:20;;;;;;;;;31.60;30.00;;;;;7.63;55.30;99225.53;6022982;28;96510;-69
2022/10/21 03:11:24;;;;;;;;;33.60;30.60;;;;;7.55;55.15;99217.63;6024648;28;97446;-69
2022/10/21 03:14:27;;;;;;;;;35.60;30.60;;;;;7.60;55.08;99215.19;6007437;28;98345;-68
2022/10/21 03:17:30;;;;;;;;;33.60;30.00;;;;;7.47;55.44;99199.00;6024121;28;96447;-68
2022/10/21 03:20:35;;;;;;;;;32.25;30.00;;;;;7.57;55.05;99204.88;6021597;28;96845;-69
2022/10/21 03:23:39;;;;;;;;;37.00;32.00;;;;;7.58;55.09;99206.50;6002785;29;97078;-63
2022/10/21 03:26:42;;;;;;;;;35.00;30.00;;;;;7.57;54.98;99204.88;6030797;28;97052;-69
2022/10/21 03:29:45;;;;;;;;;35.00;30.00;;;;;7.59;54.87;99208.16;6018138;29;96483;-69
2022/10/21 03:32:49;;;;;;;;;38.00;31.00;;;;;7.59;54.59;99199.28;6020399;29;96629;-70
2022/10/21 03:35:54;;;;;;;;;34.00;30.00;;;;;7.61;54.97;99194.56;6022491;28;96652;-69
2022/10/21 03:38:57;;;;;;;;;35.50;32.00;;;;;7.60;54.99;99192.91;6022140;28;96606;-64
2022/10/21 03:42:00;;;;;;;;;32.40;29.40;;;;;7.64;54.89;99199.53;6021309;29;96297;-69
2022/10/21 03:45:04;;;;;;;;;33.75;31.50;;;;;7.61;54.90;99199.94;6021632;28;96491;-69
2022/10/21 03:48:08;;;;;;;;;38.00;32.00;;;;;7.61;54.90;99191.88;6026994;28;96579;-64
2022/10/21 03:51:12;;;;;;;;;34.00;30.00;;;;;7.59;54.83;99185.88;6021659;29;96870;-69
2022/10/21 03:54:16;;;;;;;;;33.40;30.00;;;;;7.55;54.68;99185.44;6020284;29;97015;-69
2022/10/21 03:57:19;;;;;;;;;34.80;30.40;;;;;7.53;55.10;99186.63;6032365;28;97300;-69
2022/10/21 04:00:23;;;;;;;;;32.25;30.00;;;;;7.48;55.20;99178.38;6030845;28;96503;-69
2022/10/21 04:03:31;;;;;;;;;35.00;30.00;;;;;7.47;54.96;99187.44;6033830;28;97843;-67
2022/10/21 04:06:36;;;;;;;;;22.00;20.00;;;;;7.45;54.90;99174.22;6033085;28;97675;-68
2022/10/21 04:09:39;;;;;;;;;33.20;30.40;;;;;7.42;54.87;99181.84;6037001;28;97064;-69
2022/10/21 04:12:43;;;;;;;;;31.80;29.80;;;;;7.34;55.09;99164.84;6021640;28;98154;-69
2022/10/21 04:15:46;;;;;;;;;34.00;30.50;;;;;7.31;54.97;99154.50;6030921;28;96247;-69
2022/10/21 04:18:50;;;;;;;;;36.40;30.80;;;;;7.30;55.12;99152.03;6029074;28;96481;-69
2022/10/21 04:21:54;;;;;;;;;38.00;31.40;;;;;7.28;55.20;99149.53;6017276;28;96639;-68
2022/10/21 04:24:58;;;;;;;;;33.40;29.00;;;;;7.24;55.53;99150.09;6009310;29;97142;-69
2022/10/21 04:28:06;;;;;;;;;32.50;30.25;;;;;7.20;55.39;99147.00;6017867;28;96453;-66
2022/10/21 04:31:10;;;;;;;;;33.60;31.00;;;;;6.95;55.59;99103.69;6019123;28;97171;-69
2022/10/21 04:34:13;;;;;;;;;29.40;27.80;;;;;7.18;55.72;99130.28;6034380;28;96691;-69
2022/10/21 04:37:18;;;;;;;;;32.60;28.60;;;;;7.20;55.59;99130.06;6020365;28;96586;-69
2022/10/21 04:40:22;;;;;;;;;32.80;28.00;;;;;7.17;55.16;99133.16;6024868;28;96744;-69
2022/10/21 04:43:25;;;;;;;;;32.75;28.25;;;;;7.14;55.20;99115.59;6018265;28;96707;-68
2022/10/21 04:46:29;;;;;;;;;32.40;30.40;;;;;7.13;55.73;99123.84;6019025;28;98387;-69
2022/10/21 04:49:32;;;;;;;;;33.00;30.00;;;;;7.18;55.33;99127.59;6020859;28;96512;-68
2022/10/21 04:52:37;;;;;;;;;33.00;27.80;;;;;7.17;55.82;99128.63;6020794;28;96100;-67
2022/10/21 04:55:41;;;;;;;;;31.80;29.80;;;;;7.17;55.33;99128.63;6018403;28;96645;-68
2022/10/21 04:58:45;;;;;;;;;33.00;30.00;;;;;7.16;55.17;99128.81;6021183;28;97275;-68
2022/10/21 05:01:48;;;;;;;;;34.33;30.00;;;;;7.19;55.14;99128.41;6015743;28;96723;-68
2022/10/21 05:04:52;;;;;;;;;32.25;30.00;;;;;7.20;55.18;99133.59;6021473;28;97163;-68
2022/10/21 05:07:59;;;;;;;;;35.50;30.50;;;;;7.23;55.37;99127.81;6016457;28;97000;-68
2022/10/21 05:11:03;;;;;;;;;36.00;32.00;;;;;7.19;55.21;99125.72;6019555;28;96852;-69
2022/10/21 05:14:07;;;;;;;;;35.40;31.20;;;;;7.15;55.54;99117.25;6025167;28;96444;-67
2022/10/21 05:17:10;;;;;;;;;42.20;35.60;;;;;7.17;55.69;99112.53;6020731;28;96931;-68
2022/10/21 05:20:14;;;;;;;;;37.00;33.00;;;;;7.17;55.78;99117.06;6022484;28;96389;-68
2022/10/21 05:23:19;;;;;;;;;36.20;30.80;;;;;7.12;55.70;99123.00;6014804;28;97101;-64
2022/10/21 05:26:24;;;;;;;;;39.00;32.00;;;;;7.03;55.85;99118.81;6027678;28;96416;-70
2022/10/21 05:29:27;;;;;;;;;34.00;30.00;;;;;7.02;56.25;99119.00;6020447;28;96694;-69
2022/10/21 05:32:30;;;;;;;;;41.40;34.40;;;;;6.95;56.02;99141.19;6020193;28;96548;-68
2022/10/21 05:35:35;;;;;;;;;37.00;32.20;;;;;6.86;56.33;99144.22;6025741;28;97090;-68
2022/10/21 05:38:40;;;;;;;;;42.00;33.00;;;;;6.90;56.64;99153.50;6023310;28;96313;-68
2022/10/21 05:41:43;;;;;;;;;33.20;30.00;;;;;7.00;56.47;99147.81;6021569;28;97049;-70
2022/10/21 05:44:50;;;;;;;;;34.60;30.00;;;;;7.07;56.55;99135.31;6022661;28;96481;-69
2022/10/21 05:47:53;;;;;;;;;34.00;30.75;;;;;7.15;56.30;99156.63;6026380;28;96572;-69
2022/10/21 05:50:57;;;;;;;;;37.25;31.75;;;;;7.20;56.26;99141.63;6018070;29;96654;-70
2022/10/21 05:54:04;;;;;;;;;35.40;32.00;;;;;7.31;56.25;99151.84;6019540;28;97266;-65
2022/10/21 05:57:07;;;;;;;;;34.50;31.25;;;;;7.46;56.25;99161.63;5993982;29;98513;-67
2022/10/21 06:00:12;;;;;;;;;38.00;31.00;;;;;7.65;55.80;99166.31;6019661;28;96244;-68
2022/10/21 06:03:15;;;;;;;;;38.00;33.00;;;;;7.77;55.02;99157.50;6019947;28;96733;-69
2022/10/21 06:06:19;;;;;;;;;34.20;31.00;;;;;8.08;54.72;99150.88;6021419;28;96384;-68
2022/10/21 06:09:24;;;;;;;;;34.75;31.75;;;;;8.70;53.85;99138.09;6017982;28;97475;-68
2022/10/21 06:12:28;;;;;;;;;33.50;30.75;;;;;9.06;52.46;99136.91;6023618;28;96316;-69
2022/10/21 06:15:35;;;;;;;;;34.75;30.75;;;;;9.31;51.64;99132.56;6022578;28;96420;-68
2022/10/21 06:18:40;;;;;;;;;34.40;32.00;;;;;9.49;51.65;99123.84;6018298;28;96335;-68
2022/10/21 06:21:43;;;;;;;;;37.50;32.50;;;;;9.35;51.59;99114.16;6017981;28;96482;-69
2022/10/21 06:24:49;;;;;;;;;37.80;32.00;;;;;9.66;51.22;99121.56;6020155;28;96612;-69
2022/10/21 06:27:53;;;;;;;;;35.50;32.00;;;;;9.88;50.77;99139.13;6021142;28;96428;-69
2022/10/21 06:30:56;;;;;;;;;37.50;32.25;;;;;10.37;50.21;99160.13;6020081;28;96833;-69
2022/10/21 06:33:59;;;;;;;;;38.40;32.00;;;;;10.47;49.27;99182.06;6017426;28;96636;-69
2022/10/21 06:37:03;;;;;;;;;39.00;31.25;;;;;10.38;49.10;99191.44;6025694;28;96385;-68
2022/10/21 06:40:09;;;;;;;;;36.00;32.00;;;;;10.32;49.21;99193.09;6023126;28;96384;-69
2022/10/21 06:43:13;;;;;;;;;34.00;31.00;;;;;10.24;49.49;99195.22;6019115;28;96732;-69
2022/10/21 06:46:16;;;;;;;;;38.25;32.00;;;;;10.23;49.93;99183.59;6028806;28;97765;-69
2022/10/21 06:49:20;;;;;;;;;34.20;30.00;;;;;10.31;50.02;99186.06;6018789;28;96213;-69
2022/10/21 06:52:23;;;;;;;;;39.00;33.20;;;;;10.39;50.15;99175.06;6018493;28;96418;-69
2022/10/21 06:55:29;;;;;;;;;35.00;31.60;;;;;10.72;49.94;99157.88;6018874;28;96521;-69
2022/10/21 06:58:32;;;;;;;;;37.40;31.60;;;;;11.88;48.24;99167.16;6001043;29;97266;-69
2022/10/21 07:01:36;;;;;;;;;36.50;32.00;;;;;12.91;46.14;99168.00;6018967;28;96377;-69
2022/10/21 07:05:00;;;;;;;;;34.20;31.20;;;;;13.66;43.77;99162.06;6018738;28;96575;-69
2022/10/21 07:08:03;;;;;;;;;35.00;30.80;;;;;13.74;43.08;99159.00;6016706;28;96951;-69
2022/10/21 07:11:11;;;;;;;;;37.00;32.00;;;;;13.92;42.87;99169.75;6018813;28;96288;-69
2022/10/21 07:14:14;;;;;;;;;36.50;32.00;;;;;13.96;41.95;99162.78;6018416;28;96459;-69
2022/10/21 07:17:20;;;;;;;;;41.00;34.00;;;;;13.73;42.66;99165.50;6018520;28;96526;-69
2022/10/21 07:20:24;;;;;;;;;40.00;34.60;;;;;13.19;43.50;99180.13;6019404;28;96253;-69
2022/10/21 07:23:27;;;;;;;;;41.00;33.00;;;;;12.82;44.71;99188.31;6005270;28;96739;-68
2022/10/21 07:26:34;;;;;;;;;39.20;32.80;;;;;12.53;45.05;99189.94;6030566;28;96506;-70
2022/10/21 07:29:38;;;;;;;;;38.00;32.00;;;;;11.99;45.89;99184.53;6007584;29;96810;-70
2022/10/21 07:32:41;;;;;;;;;39.60;33.00;;;;;11.73;46.79;99175.63;6023046;28;96877;-70
2022/10/21 07:35:44;;;;;;;;;37.20;32.00;;;;;11.94;46.56;99171.69;6024183;28;96407;-70
2022/10/21 07:38:49;;;;;;;;;39.00;33.00;;;;;12.40;45.72;99171.19;6020268;29;96648;-70
2022/10/21 07:41:56;;;;;;;;;39.00;33.75;;;;;13.77;43.57;99156.66;6021497;28;96519;-71
2022/10/21 07:45:02;;;;;;;;;36.00;32.00;;;;;16.15;38.74;99161.16;6021032;28;97063;-70
2022/10/21 07:48:05;;;;;;;;;37.00;32.00;;;;;18.77;34.84;99148.19;5996356;28;96685;-70
2022/10/21 07:51:12;;;;;;;;;37.00;32.00;;;;;21.64;31.24;99145.03;6030659;28;96475;-70
2022/10/21 07:54:16;;;;;;;;;38.20;31.60;;;;;23.44;27.98;99141.50;6034606;28;96351;-69
2022/10/21 07:57:20;;;;;;;;;34.25;32.00;;;;;23.74;26.51;99128.09;6037050;28;96503;-71
2022/10/21 08:00:24;;;;;;;;;32.20;29.00;;;;;23.78;26.05;99128.28;6029191;28;96584;-70
2022/10/21 08:03:28;;;;;;;;;34.00;29.40;;;;;23.93;25.57;99122.53;6022419;28;96292;-69
2022/10/21 08:06:31;;;;;;;;;33.00;30.00;;;;;24.71;25.09;99118.78;6022510;28;97334;-70
2022/10/21 08:09:34;;;;;;;;;32.00;30.00;;;;;25.86;24.82;99113.59;6024865;28;97117;-68
2022/10/21 08:12:39;;;;;;;;;31.40;28.80;;;;;26.92;22.67;99099.56;6026868;28;96941;-70
2022/10/21 08:15:43;;;;;;;;;29.75;26.75;;;;;27.46;21.87;99095.31;6038618;28;96470;-70
2022/10/21 08:18:47;;;;;;;;;34.00;30.75;;;;;26.92;22.26;99087.66;6031204;28;96637;-70
2022/10/21 08:21:50;;;;;;;;;32.60;30.00;;;;;27.51;22.17;99086.84;6029455;28;97707;-70
2022/10/21 08:24:53;;;;;;;;;33.50;30.00;;;;;27.84;21.17;99092.66;6020375;28;97667;-70
2022/10/21 08:27:59;;;;;;;;;34.40;30.00;;;;;28.89;20.30;99079.94;6017244;29;96715;-69
2022/10/21 08:31:03;;;;;;;;;34.00;31.00;;;;;29.57;19.78;99095.22;6021035;28;97315;-70
2022/10/21 08:34:07;;;;;;;;;32.00;30.00;;;;;29.86;19.74;99097.06;6025273;28;96842;-69
2022/10/21 08:37:10;;;;;;;;;34.00;30.00;;;;;29.61;20.04;99093.41;6021450;28;96785;-69
2022/10/21 08:40:13;;;;;;;;;35.00;29.60;;;;;29.56;19.96;99082.50;6015213;28;96852;-70
2022/10/21 08:43:23;;;;;;;;;36.00;31.00;;;;;28.52;20.79;99067.75;6020079;28;96433;-69
2022/10/21 08:46:31;;;;;;;;;37.80;31.20;;;;;27.03;22.54;99053.78;6020822;28;97867;-69
2022/10/21 08:49:46;;;;;;;;;39.80;34.00;;;;;26.11;23.05;99048.53;6019745;28;96575;-70
2022/10/21 08:52:55;;;;;;;;;37.00;32.80;;;;;26.59;22.19;99049.34;6022632;28;96554;-69
2022/10/21 08:56:03;;;;;;;;;40.60;35.60;;;;;26.62;22.28;99050.66;6018251;28;96549;-69
2022/10/21 08:59:20;;;;;;;;;43.40;35.40;;;;;26.56;22.50;99047.22;6018634;28;97184;-70
2022/10/21 09:02:40;;;;;;;;;38.00;33.00;;;;;26.31;22.52;99031.41;6027910;28;96685;-70
2022/10/21 09:06:07;;;;;;;;;35.50;32.00;;;;;25.83;23.50;99042.41;6028859;28;96551;-70
2022/10/21 09:09:19;;;;;;;;;39.80;34.60;;;;;25.18;24.36;99036.63;6037262;28;96613;-70
2022/10/21 09:12:32;;;;;;;;;32.00;30.00;;;;;24.65;25.05;99037.31;6023333;28;96680;-71
2022/10/21 09:15:49;;;;;;;;;36.40;32.00;;;;;24.09;25.63;99027.44;6020080;28;96351;-70
2022/10/21 09:19:03;;;;;;;;;33.00;30.00;;;;;23.53;26.73;99029.66;6023187;28;96979;-70
2022/10/21 09:22:33;;;;;;;;;38.00;33.00;;;;;23.36;26.82;99024.69;6018615;28;96477;-70
2022/10/21 09:25:48;;;;;;;;;36.50;31.00;;;;;22.93;27.33;99017.72;6029935;28;97164;-70
2022/10/21 09:28:51;;;;;;;;;34.40;31.40;;;;;22.40;27.92;99018.75;6022726;28;96625;-70
2022/10/21 09:32:02;;;;;;;;;33.60;30.00;;;;;21.78;29.16;99013.47;6027160;28;96533;-70
2022/10/21 09:35:15;;;;;;;;;35.60;32.00;;;;;21.39;29.46;99024.56;6032505;28;97135;-70
2022/10/21 09:38:25;;;;;;;;;40.00;34.00;;;;;20.84;30.18;99010.19;6012830;29;97908;-70
2022/10/21 09:41:33;;;;;;;;;37.40;32.00;;;;;20.35;30.83;99007.50;6012775;28;96509;-70
2022/10/21 09:44:36;;;;;;;;;39.00;33.00;;;;;19.81;32.29;99015.63;6021686;28;96715;-68
2022/10/21 09:47:41;;;;;;;;;37.00;32.00;;;;;19.38;32.91;99017.09;6009514;28;96302;-69
2022/10/21 09:50:48;;;;;;;;;38.00;32.40;;;;;19.10;33.65;99015.75;6022985;28;97792;-70
2022/10/21 09:53:54;;;;;;;;;38.00;33.00;;;;;18.77;34.43;99002.59;6028032;28;96715;-69
2022/10/21 09:57:05;;;;;;;;;32.80;28.40;;;;;18.48;34.93;98991.34;6008984;28;97698;-69
2022/10/21 10:00:09;;;;;;;;;33.00;29.00;;;;;18.02;35.67;98995.88;6034032;28;96617;-68
2022/10/21 10:03:33;;;;;;;;;33.00;30.00;;;;;17.82;36.39;98988.44;6033538;28;96464;-70
2022/10/21 10:06:38;;;;;;;;;32.20;27.20;;;;;17.83;37.09;98979.16;6025037;28;96491;-70
2022/10/21 10:09:46;;;;;;;;;32.25;29.00;;;;;18.15;35.77;98968.06;6029594;28;96462;-70
2022/10/21 10:12:57;;;;;;;;;30.00;27.00;;;;;18.58;35.59;98953.97;6029693;28;96548;-70
2022/10/21 10:16:22;;;;;;;;;33.80;30.00;;;;;19.16;34.56;98948.22;6032498;28;97292;-70
2022/10/21 10:19:28;;;;;;;;;32.60;30.00;;;;;19.59;33.95;98941.31;6038576;28;96401;-70
2022/10/21 10:22:34;;;;;;;;;33.25;30.25;;;;;19.75;34.27;98924.56;6026397;28;96398;-67
2022/10/21 10:25:39;;;;;;;;;39.00;33.00;;;;;20.03;33.82;98924.97;6023645;28;97117;-69
2022/10/21 10:28:50;;;;;;;;;38.00;31.80;;;;;20.42;33.61;98928.59;6027006;28;96322;-70
2022/10/21 10:31:56;;;;;;;;;34.50;30.00;;;;;20.44;33.52;98918.16;6020241;28;96794;-70
2022/10/21 10:35:04;;;;;;;;;34.60;30.00;;;;;20.43;33.59;98916.53;6005673;29;96607;-70
2022/10/21 10:38:16;;;;;;;;;30.00;28.00;;;;;20.22;33.79;98917.75;6028061;28;96471;-70
2022/10/21 10:41:20;;;;;;;;;37.40;30.00;;;;;19.97;34.29;98915.16;6016572;28;96772;-68
2022/10/21 10:44:31;;;;;;;;;31.00;28.00;;;;;19.39;35.50;98907.44;6016732;28;96297;-67
2022/10/21 10:47:41;;;;;;;;;30.00;28.75;;;;;19.18;35.94;98900.41;6019248;28;96329;-68
2022/10/21 10:50:48;;;;;;;;;30.60;29.00;;;;;18.82;36.70;98898.81;6015939;28;97107;-66
2022/10/21 10:54:01;;;;;;;;;38.20;32.20;;;;;18.42;38.11;98891.44;6018961;28;96673;-70
2022/10/21 10:57:10;;;;;;;;;35.00;32.00;;;;;18.13;38.52;98883.75;6011580;28;96793;-66
2022/10/21 11:00:17;;;;;;;;;33.00;28.00;;;;;17.79;39.61;98866.22;6024691;28;96606;-69
2022/10/21 11:03:27;;;;;;;;;35.60;31.60;;;;;17.75;40.03;98862.41;6032492;28;96471;-69
2022/10/21 11:06:40;;;;;;;;;40.00;32.00;;;;;17.74;40.29;98856.13;6023903;28;96501;-68
2022/10/21 11:09:45;;;;;;;;;32.60;29.60;;;;;17.84;40.07;98863.50;6022615;28;96957;-69
2022/10/21 11:12:48;;;;;;;;;34.60;30.00;;;;;17.91;40.02;98853.16;6027541;28;96500;-69
2022/10/21 11:16:10;;;;;;;;;30.40;28.40;;;;;17.91;40.15;98844.16;6033092;28;96486;-68
2022/10/21 11:19:22;;;;;;;;;37.60;31.60;;;;;17.92;40.16;98835.72;6018125;29;96683;-69
2022/10/21 11:22:39;;;;;;;;;36.60;31.00;;;;;17.90;40.43;98837.88;6028868;28;96408;-68
2022/10/21 11:25:47;;;;;;;;;34.00;31.25;;;;;17.78;40.41;98831.06;6021566;28;97293;-66
2022/10/21 11:28:55;;;;;;;;;37.60;31.60;;;;;17.67;40.84;98813.84;6003751;28;96989;-66
2022/10/21 11:32:09;;;;;;;;;38.00;32.00;;;;;17.64;40.85;98807.00;6019291;28;96947;-66
2022/10/21 11:35:28;;;;;;;;;31.00;27.50;;;;;17.44;41.27;98784.34;6010099;28;96887;-67
2022/10/21 11:38:46;;;;;;;;;34.75;31.00;;;;;17.61;41.21;98791.22;6021343;28;96574;-67
2022/10/21 11:41:56;;;;;;;;;37.60;32.00;;;;;17.73;41.42;98782.78;6026394;28;96412;-67
2022/10/21 11:45:22;;;;;;;;;32.00;30.00;;;;;17.77;41.47;98778.44;6025425;28;96427;-68
2022/10/21 11:48:39;;;;;;;;;32.00;30.00;;;;;17.78;41.35;98771.91;6034531;28;96908;-68
2022/10/21 11:51:53;;;;;;;;;30.20;27.60;;;;;17.84;41.67;98778.19;6027488;28;96307;-67
2022/10/21 11:55:09;;;;;;;;;30.75;27.75;;;;;17.90;41.43;98772.44;6033049;28;96860;-68
2022/10/21 11:58:38;;;;;;;;;30.00;28.60;;;;;17.87;41.47;98755.81;6023654;28;96939;-68
2022/10/21 12:01:52;;;;;;;;;28.00;25.00;;;;;17.80;41.83;98766.97;6010850;28;96875;-68
2022/10/21 12:05:07;;;;;;;;;26.40;24.40;;;;;17.84;41.49;98765.34;6021778;28;97340;-69
2022/10/21 12:08:16;;;;;;;;;27.25;25.25;;;;;17.80;42.12;98775.16;6021323;28;96273;-68
2022/10/21 12:11:26;;;;;;;;;24.60;22.60;;;;;17.67;42.06;98757.44;6019680;28;97032;-69
2022/10/21 12:14:34;;;;;;;;;23.80;21.80;;;;;17.87;41.93;98748.44;6023461;28;97139;-68
2022/10/21 12:17:38;;;;;;;;;23.80;21.80;;;;;18.04;41.55;98734.50;5999571;28;96334;-69
2022/10/21 12:20:43;;;;;;;;;24.20;23.00;;;;;18.13;41.61;98730.16;6018307;28;96842;-69
2022/10/21 12:23:51;;;;;;;;;23.60;22.60;;;;;18.06;41.70;98735.88;6021585;28;96302;-70
2022/10/21 12:27:07;;;;;;;;;21.25;20.50;;;;;18.08;41.99;98728.22;6019212;28;96989;-70
2022/10/21 12:30:16;;;;;;;;;22.00;20.00;;;;;18.12;41.99;98726.63;6016650;28;97901;-70
2022/10/21 12:33:35;;;;;;;;;20.67;20.00;;;;;18.31;41.62;98723.31;6018532;28;96687;-69
2022/10/21 12:36:42;;;;;;;;;21.00;20.60;;;;;18.59;40.80;98706.34;6016178;28;97166;-69
2022/10/21 12:39:51;;;;;;;;;20.80;18.80;;;;;18.95;40.30;98716.03;6018660;28;96825;-71
2022/10/21 12:43:01;;;;;;;;;19.40;17.60;;;;;19.12;40.26;98718.41;6017656;28;96597;-69
2022/10/21 12:46:07;;;;;;;;;22.00;21.00;;;;;19.25;39.96;98708.78;6004055;28;97098;-70
2022/10/21 12:49:26;;;;;;;;;20.00;18.50;;;;;19.43;39.76;98708.13;6016926;28;96832;-70
2022/10/21 12:52:30;;;;;;;;;20.60;20.00;;;;;19.48;39.83;98710.03;6016981;28;96589;-69
2022/10/21 12:55:39;;;;;;;;;20.00;18.60;;;;;19.39;39.47;98713.34;6021331;28;96504;-63
2022/10/21 12:58:46;;;;;;;;;21.00;19.00;;;;;19.37;39.93;98696.41;6017532;28;96725;-70
2022/10/21 13:02:10;;;;;;;;;20.75;19.50;;;;;19.39;39.75;98693.38;6018758;28;96736;-70
2022/10/21 13:05:51;;;;;;;;;24.00;21.80;;;;;19.38;40.24;98694.47;6020621;28;96509;-70
2022/10/21 13:08:55;;;;;;;;;20.60;20.00;;;;;19.64;40.03;98693.25;6010261;28;96402;-71
2022/10/21 13:12:12;;;;;;;;;22.00;19.00;;;;;20.03;39.48;98698.66;6020450;28;96198;-70
2022/10/21 13:15:50;;;;;;;;;22.00;20.00;;;;;20.39;38.60;98710.09;6020265;28;96542;-69
2022/10/21 13:18:57;;;;;;;;;25.75;21.50;;;;;20.52;38.41;98709.44;5923493;29;98915;-72
2022/10/21 13:22:03;;;;;;;;;20.40;18.00;;;;;20.72;37.96;98711.91;5932840;29;97225;-71
2022/10/21 13:25:19;;;;;;;;;21.00;18.60;;;;;20.88;37.83;98707.06;5914717;29;99159;-71
2022/10/21 13:28:24;;;;;;;;;20.00;18.60;;;;;21.07;37.69;98701.63;5940962;29;99601;-69
2022/10/21 13:31:29;;;;;;;;;18.25;16.25;;;;;21.35;37.44;98706.22;5941806;29;96653;-70
2022/10/21 13:34:33;;;;;;;;;21.50;19.00;;;;;21.47;37.05;98689.28;5912974;29;96923;-70
2022/10/21 13:37:55;;;;;;;;;20.00;19.40;;;;;21.53;36.63;98682.63;5941348;29;96949;-70
2022/10/21 13:41:01;;;;;;;;;21.00;19.60;;;;;21.51;36.48;98693.88;5927491;29;96831;-70
2022/10/21 13:44:06;;;;;;;;;19.80;19.00;;;;;21.46;36.59;98679.44;5926513;29;97837;-71
2022/10/21 13:47:27;;;;;;;;;19.80;18.80;;;;;21.23;36.57;98669.34;5932862;29;96779;-71
2022/10/21 13:50:34;;;;;;;;;19.00;16.40;;;;;21.09;37.12;98661.84;6008722;28;96808;-67
2022/10/21 13:53:44;;;;;;;;;20.00;18.40;;;;;21.00;37.33;98665.53;6019725;28;96888;-71
2022/10/21 13:56:48;;;;;;;;;20.50;17.50;;;;;20.88;37.88;98667.88;6015370;28;97523;-71
2022/10/21 14:00:00;;;;;;;;;16.20;16.00;;;;;20.77;37.79;98672.69;6018334;28;96331;-69
2022/10/21 14:03:06;;;;;;;;;16.60;15.40;;;;;20.51;38.20;98653.00;6017816;28;96620;-71
2022/10/21 14:06:12;;;;;;;;;14.75;14.00;;;;;20.49;38.39;98668.91;6014515;28;97647;-71
2022/10/21 14:09:19;;;;;;;;;14.80;13.80;;;;;20.31;39.29;98667.75;6017168;28;96945;-69
2022/10/21 14:12:26;;;;;;;;;15.60;14.80;;;;;20.18;39.24;98668.38;6018145;28;96618;-70
2022/10/21 14:15:39;;;;;;;;;15.00;11.67;;;;;20.14;39.17;98672.00;6017290;28;96607;-71
2022/10/21 14:18:48;;;;;;;;;14.50;13.50;;;;;20.09;39.32;98677.50;6005588;28;96455;-69
2022/10/21 14:21:55;;;;;;;;;15.20;15.20;;;;;20.01;39.53;98670.75;6022013;28;97058;-70
2022/10/21 14:25:01;;;;;;;;;16.00;14.60;;;;;19.88;39.74;98665.97;6018193;28;96807;-71
2022/10/21 14:28:05;;;;;;;;;14.80;14.00;;;;;19.83;39.24;98666.00;6014850;29;96655;-71